createdAt,value
2023-05-19T00:02:09.331Z,90.00
2023-05-19T00:05:15.207Z,90.01
2023-05-19T00:08:18.971Z,90.16
2023-05-19T00:11:22.866Z,90.01
2023-05-19T00:14:26.819Z,90.21
2023-05-19T00:17:29.676Z,90.61
2023-05-19T00:20:32.774Z,90.73
2023-05-19T00:23:35.707Z,91.19
2023-05-19T00:26:38.318Z,91.19
2023-05-19T00:29:42.326Z,91.37
2023-05-19T00:32:45.108Z,91.45
2023-05-19T00:35:47.893Z,91.35
2023-05-19T00:38:51.371Z,91.35
2023-05-19T00:41:54.005Z,91.24
2023-05-19T00:44:56.639Z,91.30
2023-05-19T00:47:59.347Z,91.34
2023-05-19T00:51:05.229Z,91.36
2023-05-19T00:54:08.492Z,91.64
2023-05-19T00:57:11.763Z,91.94
2023-05-19T01:00:14.665Z,92.45
2023-05-19T01:03:20.650Z,91.97
2023-05-19T01:06:23.729Z,92.46
2023-05-19T01:09:26.704Z,92.68
2023-05-19T01:12:29.545Z,93.14
2023-05-19T01:15:41.908Z,93.24
2023-05-19T01:18:56.845Z,93.17
2023-05-19T01:22:07.012Z,92.28
2023-05-19T01:25:28.548Z,91.96
2023-05-19T01:28:37.114Z,91.89
2023-05-19T01:31:42.363Z,92.41
2023-05-19T01:34:46.493Z,92.67
2023-05-19T01:37:50.048Z,92.78
2023-05-19T01:40:54.289Z,92.66
2023-05-19T01:43:57.567Z,92.66
2023-05-19T01:47:01.083Z,92.81
2023-05-19T01:50:04.478Z,92.74
2023-05-19T01:53:07.101Z,91.87
2023-05-19T01:56:10.682Z,92.23
2023-05-19T01:59:39.521Z,92.24
2023-05-19T02:02:48.492Z,91.17
2023-05-19T02:05:57.643Z,91.69
2023-05-19T02:09:16.258Z,92.16
2023-05-19T02:12:20.609Z,92.57
2023-05-19T02:15:28.824Z,92.16
2023-05-19T02:18:35.507Z,92.46
2023-05-19T02:21:38.094Z,92.87
2023-05-19T02:24:44.447Z,93.25
2023-05-19T02:27:49.066Z,93.37
2023-05-19T02:30:51.615Z,93.14
2023-05-19T02:33:54.235Z,93.09
2023-05-19T02:36:57.760Z,93.12
2023-05-19T02:40:00.571Z,93.37
2023-05-19T02:43:03.540Z,93.53
2023-05-19T02:46:06.259Z,93.50
2023-05-19T02:49:09.420Z,93.49
2023-05-19T02:52:12.236Z,93.70
2023-05-19T02:55:17.235Z,93.94
2023-05-19T02:58:20.980Z,94.21
2023-05-19T03:01:23.766Z,94.36
2023-05-19T03:04:26.432Z,94.11
2023-05-19T03:07:29.077Z,94.24
2023-05-19T03:10:31.978Z,94.36
2023-05-19T03:13:34.986Z,94.57
2023-05-19T03:16:37.888Z,94.42
2023-05-19T03:19:41.604Z,94.43
2023-05-19T03:22:44.445Z,94.59
2023-05-19T03:25:47.791Z,94.59
2023-05-19T03:28:50.954Z,94.72
2023-05-19T03:31:53.771Z,94.82
2023-05-19T03:34:56.455Z,94.77
2023-05-19T03:37:59.257Z,94.46
2023-05-19T03:41:02.123Z,94.26
2023-05-19T03:44:04.843Z,94.19
2023-05-19T03:47:07.617Z,94.46
2023-05-19T03:50:11.692Z,94.71
2023-05-19T03:53:14.885Z,94.70
2023-05-19T03:56:18.317Z,94.62
2023-05-19T03:59:21.002Z,94.56
2023-05-19T04:02:23.733Z,94.24
2023-05-19T04:05:26.444Z,94.21
2023-05-19T04:08:29.539Z,93.55
2023-05-19T04:11:32.236Z,93.49
2023-05-19T04:14:34.893Z,93.60
2023-05-19T04:17:39.092Z,93.72
2023-05-19T04:20:42.232Z,93.70
2023-05-19T04:23:45.211Z,92.98
2023-05-19T04:26:48.233Z,92.07
2023-05-19T04:29:51.068Z,91.30
2023-05-19T04:32:53.970Z,91.62
2023-05-19T04:35:56.893Z,91.22
2023-05-19T04:39:02.335Z,90.23
2023-05-19T04:42:05.922Z,90.05
2023-05-19T04:45:09.589Z,90.06
2023-05-19T04:48:14.042Z,89.16
2023-05-19T04:51:17.678Z,89.59
2023-05-19T04:54:20.537Z,89.56
2023-05-19T04:57:23.475Z,89.50
2023-05-19T05:00:26.489Z,89.26
2023-05-19T05:03:31.082Z,88.79
2023-05-19T05:06:33.960Z,88.46
2023-05-19T05:09:36.931Z,88.12
2023-05-19T05:12:39.843Z,87.98
2023-05-19T05:15:42.623Z,86.28
2023-05-19T05:18:46.952Z,83.51
2023-05-19T05:21:49.901Z,84.82
2023-05-19T05:24:52.777Z,85.66
2023-05-19T05:27:55.856Z,85.93
2023-05-19T05:30:59.071Z,85.15
2023-05-19T05:34:01.898Z,85.71
2023-05-19T05:37:05.397Z,85.04
2023-05-19T05:40:09.312Z,83.63
2023-05-19T05:43:12.235Z,82.07
2023-05-19T05:46:16.834Z,82.53
2023-05-19T05:49:19.784Z,82.69
2023-05-19T05:52:24.792Z,80.10
2023-05-19T05:55:27.706Z,79.30
2023-05-19T05:58:32.735Z,79.01
2023-05-19T06:01:38.275Z,79.77
2023-05-19T06:04:41.903Z,80.76
2023-05-19T06:07:44.500Z,81.62
2023-05-19T06:10:47.743Z,78.25
2023-05-19T06:13:50.511Z,77.26
2023-05-19T06:16:54.792Z,77.71
2023-05-19T06:19:57.397Z,78.18
2023-05-19T06:23:01.130Z,79.12
2023-05-19T06:26:04.079Z,76.62
2023-05-19T06:29:07.581Z,77.01
2023-05-19T06:32:10.140Z,76.41
2023-05-19T06:35:13.648Z,73.12
2023-05-19T06:38:16.121Z,74.07
2023-05-19T06:41:19.106Z,73.92
2023-05-19T06:44:22.650Z,70.95
2023-05-19T06:47:25.960Z,72.35
2023-05-19T06:50:28.446Z,73.31
2023-05-19T06:53:31.772Z,74.59
2023-05-19T06:56:34.323Z,74.77
2023-05-19T06:59:40.886Z,70.83
2023-05-19T07:02:43.882Z,69.60
2023-05-19T07:05:47.410Z,69.15
2023-05-19T07:08:51.288Z,70.26
2023-05-19T07:11:56.423Z,70.05
2023-05-19T07:14:59.220Z,69.54
2023-05-19T07:18:03.572Z,68.66
2023-05-19T07:21:07.371Z,69.75
2023-05-19T07:24:10.587Z,66.93
2023-05-19T07:27:12.947Z,68.44
2023-05-19T07:30:16.133Z,66.75
2023-05-19T07:33:18.475Z,64.76
2023-05-19T07:36:21.472Z,65.97
2023-05-19T07:39:26.367Z,65.99
2023-05-19T07:42:29.377Z,63.42
2023-05-19T07:45:31.669Z,60.26
2023-05-19T07:48:34.580Z,60.23
2023-05-19T07:51:36.897Z,58.25
2023-05-19T07:54:39.824Z,59.78
2023-05-19T07:57:42.317Z,60.30
2023-05-19T08:00:46.201Z,54.27
2023-05-19T08:03:49.111Z,54.85
2023-05-19T08:06:53.011Z,57.90
2023-05-19T08:09:55.864Z,57.89
2023-05-19T08:12:58.556Z,54.36
2023-05-19T08:16:01.510Z,55.64
2023-05-19T08:19:05.521Z,52.41
2023-05-19T08:22:08.205Z,57.48
2023-05-19T08:25:11.717Z,56.04
2023-05-19T08:28:14.466Z,54.97
2023-05-19T08:31:18.539Z,54.01
2023-05-19T08:34:21.270Z,50.40
2023-05-19T08:37:23.931Z,49.40
2023-05-19T08:40:29.169Z,49.38
2023-05-19T08:43:31.919Z,47.48
2023-05-19T08:46:35.274Z,49.54
2023-05-19T08:49:43.399Z,51.58
2023-05-19T08:52:53.102Z,53.70
2023-05-19T08:56:02.205Z,54.94
2023-05-19T08:59:05.180Z,53.25
2023-05-19T09:02:10.245Z,51.81
2023-05-19T09:05:13.287Z,47.67
2023-05-19T09:08:16.237Z,46.03
2023-05-19T09:11:19.032Z,44.44
2023-05-19T09:14:22.152Z,44.82
2023-05-19T09:17:24.854Z,40.06
2023-05-19T09:20:30.774Z,39.58
2023-05-19T09:23:34.100Z,39.38
2023-05-19T09:26:38.173Z,41.16
2023-05-19T09:29:40.993Z,43.69
2023-05-19T09:32:44.756Z,45.36
2023-05-19T09:35:47.963Z,44.35
2023-05-19T09:38:51.700Z,46.34
2023-05-19T09:41:55.339Z,46.63
2023-05-19T09:45:04.956Z,43.34
2023-05-19T09:48:08.055Z,44.32
2023-05-19T09:51:11.054Z,47.05
2023-05-19T09:54:17.022Z,47.85
2023-05-19T09:57:25.170Z,43.54
2023-05-19T10:00:28.236Z,39.87
2023-05-19T10:03:33.036Z,41.10
2023-05-19T10:06:35.849Z,41.55
2023-05-19T10:09:39.440Z,44.72
2023-05-19T10:12:42.354Z,43.48
2023-05-19T10:15:57.951Z,40.41
2023-05-19T10:19:02.563Z,41.93
2023-05-19T10:22:05.591Z,42.80
2023-05-19T10:25:08.595Z,45.32
2023-05-19T10:28:16.393Z,45.55
2023-05-19T10:31:21.456Z,42.30
2023-05-19T10:34:50.479Z,44.48
2023-05-19T10:37:56.246Z,44.17
2023-05-19T10:41:02.865Z,43.46
2023-05-19T10:44:11.724Z,43.02
2023-05-19T10:47:14.900Z,42.44
2023-05-19T10:50:18.658Z,43.18
2023-05-19T10:53:22.978Z,43.42
2023-05-19T10:56:36.412Z,45.60
2023-05-19T10:59:39.486Z,43.84
2023-05-19T11:02:41.966Z,37.94
2023-05-19T11:05:50.927Z,38.22
2023-05-19T11:09:01.003Z,41.09
2023-05-19T11:12:04.200Z,41.25
2023-05-19T11:15:07.678Z,40.79
2023-05-19T11:18:15.901Z,42.21
2023-05-19T11:21:19.876Z,39.56
2023-05-19T11:24:40.653Z,42.44
2023-05-19T11:27:46.691Z,36.29
2023-05-19T11:30:50.789Z,36.18
2023-05-19T11:33:53.370Z,35.55
2023-05-19T11:36:57.683Z,35.29
2023-05-19T11:40:07.364Z,38.45
2023-05-19T11:43:10.756Z,39.15
2023-05-19T11:46:13.547Z,38.86
2023-05-19T11:49:17.501Z,34.04
2023-05-19T11:52:21.222Z,35.69
2023-05-19T11:55:24.966Z,35.17
2023-05-19T11:58:27.954Z,35.94
2023-05-19T12:01:32.066Z,39.81
2023-05-19T12:04:34.812Z,40.59
2023-05-19T12:07:39.578Z,36.27
2023-05-19T12:10:42.471Z,36.26
2023-05-19T12:13:45.187Z,38.33
2023-05-19T12:16:47.902Z,36.38
2023-05-19T12:19:50.942Z,35.81
2023-05-19T12:22:55.637Z,35.73
2023-05-19T12:26:01.681Z,35.92
2023-05-19T12:29:07.220Z,35.69
2023-05-19T12:32:09.979Z,36.18
2023-05-19T12:35:12.672Z,35.83
2023-05-19T12:38:16.145Z,35.94
2023-05-19T12:41:19.498Z,36.11
2023-05-19T12:44:22.159Z,36.12
2023-05-19T12:47:30.783Z,37.42
2023-05-19T12:50:34.712Z,36.11
2023-05-19T12:53:38.145Z,36.65
2023-05-19T12:56:49.419Z,36.51
2023-05-19T12:59:52.147Z,36.28
2023-05-19T13:02:55.349Z,37.60
2023-05-19T13:05:59.877Z,40.45
2023-05-19T13:09:03.803Z,38.13
2023-05-19T13:12:06.587Z,40.00
2023-05-19T13:15:09.415Z,38.42
2023-05-19T13:18:12.834Z,38.32
2023-05-19T13:21:15.834Z,40.12
2023-05-19T13:24:18.563Z,37.85
2023-05-19T13:27:21.149Z,38.85
2023-05-19T13:30:24.453Z,40.11
2023-05-19T13:33:27.118Z,41.29
2023-05-19T13:36:29.893Z,38.58
2023-05-19T13:39:33.112Z,39.47
2023-05-19T13:42:36.099Z,38.63
2023-05-19T13:45:38.766Z,42.79
2023-05-19T13:48:42.687Z,41.15
2023-05-19T13:51:45.398Z,41.28
2023-05-19T13:54:48.575Z,40.46
2023-05-19T13:57:51.170Z,41.09
2023-05-19T14:00:56.448Z,43.95
2023-05-19T14:04:00.563Z,43.48
2023-05-19T14:07:03.426Z,43.01
2023-05-19T14:10:06.969Z,42.43
2023-05-19T14:16:17.743Z,44.22
2023-05-19T14:19:20.295Z,43.86
2023-05-19T14:22:23.357Z,41.91
2023-05-19T14:25:25.690Z,42.70
2023-05-19T14:28:28.606Z,43.99
2023-05-19T14:31:31.296Z,41.66
2023-05-19T14:34:35.707Z,41.77
2023-05-19T14:37:38.157Z,43.11
2023-05-19T14:40:41.556Z,45.01
2023-05-19T14:43:43.944Z,43.45
2023-05-19T14:46:46.927Z,42.89
2023-05-19T14:49:49.385Z,42.87
2023-05-19T14:52:52.290Z,45.44
2023-05-19T14:55:54.629Z,43.94
2023-05-19T14:58:57.686Z,43.84
2023-05-19T15:02:00.009Z,45.62
2023-05-19T15:05:03.207Z,45.49
2023-05-19T15:08:06.445Z,45.77
2023-05-19T15:11:09.549Z,46.00
2023-05-19T15:14:11.892Z,44.80
2023-05-19T15:17:14.922Z,45.35
2023-05-19T15:20:17.469Z,44.93
2023-05-19T15:23:20.378Z,46.43
2023-05-19T15:26:22.703Z,43.63
2023-05-19T15:29:25.533Z,45.89
2023-05-19T15:32:27.921Z,45.51
2023-05-19T15:35:30.862Z,46.11
2023-05-19T15:38:35.512Z,45.92
2023-05-19T15:41:38.494Z,45.23
2023-05-19T15:44:41.005Z,45.61
2023-05-19T15:47:44.217Z,46.50
2023-05-19T15:50:46.679Z,46.09
2023-05-19T15:53:49.785Z,46.25
2023-05-19T15:56:52.412Z,56.76
2023-05-19T15:59:55.934Z,63.35
2023-05-19T16:02:58.516Z,64.06
2023-05-19T16:06:01.479Z,66.50
2023-05-19T16:09:04.057Z,70.42
2023-05-19T16:12:07.131Z,66.67
2023-05-19T16:15:09.733Z,68.50
2023-05-19T16:18:13.003Z,66.90
2023-05-19T16:21:15.443Z,70.04
2023-05-19T16:24:18.398Z,71.39
2023-05-19T16:27:20.919Z,68.73
2023-05-19T16:30:24.643Z,67.81
2023-05-19T16:33:27.312Z,67.62
2023-05-19T16:36:30.295Z,61.14
2023-05-19T16:39:32.783Z,59.68
2023-05-19T16:42:35.895Z,61.09
2023-05-19T16:45:38.479Z,65.13
2023-05-19T16:48:41.530Z,60.72
2023-05-19T16:51:43.850Z,59.17
2023-05-19T16:54:46.832Z,58.82
2023-05-19T16:57:49.252Z,59.06
2023-05-19T17:00:52.706Z,58.63
2023-05-19T17:03:59.700Z,59.98
2023-05-19T17:07:04.720Z,58.63
2023-05-19T17:10:07.657Z,59.80
2023-05-19T17:13:11.244Z,58.36
2023-05-19T17:16:13.673Z,57.45
2023-05-19T17:19:16.947Z,57.13
2023-05-19T17:22:19.408Z,56.02
2023-05-19T17:25:22.440Z,58.51
2023-05-19T17:28:24.983Z,56.15
2023-05-19T17:31:27.950Z,58.96
2023-05-19T17:34:30.748Z,60.28
2023-05-19T17:37:33.842Z,62.12
2023-05-19T17:40:37.071Z,62.96
2023-05-19T17:43:43.209Z,64.85
2023-05-19T17:46:45.744Z,65.40
2023-05-19T17:49:49.063Z,62.70
2023-05-19T17:52:51.647Z,62.14
2023-05-19T17:55:58.516Z,62.48
2023-05-19T17:59:01.015Z,61.25
2023-05-19T18:02:04.160Z,62.69
2023-05-19T18:05:07.109Z,62.21
2023-05-19T18:08:10.359Z,63.69
2023-05-19T18:11:16.011Z,63.11
2023-05-19T18:14:18.892Z,63.67
2023-05-19T18:17:21.521Z,65.54
2023-05-19T18:20:24.114Z,65.24
2023-05-19T18:23:26.832Z,64.51
2023-05-19T18:26:29.521Z,64.90
2023-05-19T18:29:35.977Z,65.28
2023-05-19T18:32:38.844Z,65.50
2023-05-19T18:35:41.564Z,66.27
2023-05-19T18:38:44.176Z,68.51
2023-05-19T18:41:47.570Z,69.66
2023-05-19T18:44:50.809Z,70.96
2023-05-19T18:47:53.596Z,71.99
2023-05-19T18:50:57.197Z,73.27
2023-05-19T18:53:59.834Z,74.84
2023-05-19T18:57:03.537Z,73.53
2023-05-19T19:00:06.613Z,73.07
2023-05-19T19:03:12.391Z,73.64
2023-05-19T19:06:17.074Z,73.81
2023-05-19T19:09:19.755Z,74.99
2023-05-19T19:12:22.486Z,74.75
2023-05-19T19:15:26.009Z,75.14
2023-05-19T19:18:28.903Z,74.55
2023-05-19T19:21:31.813Z,75.51
2023-05-19T19:24:35.871Z,75.53
2023-05-19T19:27:38.513Z,76.47
2023-05-19T19:30:41.196Z,76.20
2023-05-19T19:33:43.934Z,76.17
2023-05-19T19:36:47.900Z,76.30
2023-05-19T19:39:50.600Z,77.27
2023-05-19T19:42:53.640Z,77.59
2023-05-19T19:46:04.360Z,77.33
2023-05-19T19:49:07.135Z,77.99
2023-05-19T19:52:09.799Z,78.21
2023-05-19T19:55:12.457Z,78.91
2023-05-19T19:58:15.128Z,79.08
2023-05-19T20:01:20.643Z,79.01
2023-05-19T20:04:23.815Z,79.03
2023-05-19T20:07:26.303Z,79.22
2023-05-19T20:10:30.338Z,80.42
2023-05-19T20:13:33.006Z,80.82
2023-05-19T20:16:36.247Z,79.37
2023-05-19T20:19:38.683Z,80.08
2023-05-19T20:22:41.774Z,78.93
2023-05-19T20:25:58.909Z,78.23
2023-05-19T20:29:07.330Z,79.31
2023-05-19T20:32:09.803Z,80.94
2023-05-19T20:35:12.864Z,80.91
2023-05-19T20:38:15.248Z,81.12
2023-05-19T20:41:18.202Z,82.05
2023-05-19T20:44:20.660Z,81.32
2023-05-19T20:47:23.705Z,80.71
2023-05-19T20:50:26.287Z,82.22
2023-05-19T20:53:29.231Z,82.55
2023-05-19T20:56:31.714Z,83.21
2023-05-19T20:59:38.031Z,83.56
2023-05-19T21:02:41.996Z,84.21
2023-05-19T21:05:44.969Z,84.14
2023-05-19T21:08:47.397Z,83.60
2023-05-19T21:11:53.212Z,82.86
2023-05-19T21:14:55.877Z,83.56
2023-05-19T21:17:58.958Z,83.84
2023-05-19T21:21:02.068Z,84.42
2023-05-19T21:24:05.172Z,83.31
2023-05-19T21:27:07.715Z,81.74
2023-05-19T21:30:10.888Z,81.70
2023-05-19T21:33:13.277Z,82.37
2023-05-19T21:36:16.887Z,82.57
2023-05-19T21:39:19.277Z,80.58
2023-05-19T21:42:22.286Z,80.91
2023-05-19T21:45:24.698Z,81.87
2023-05-19T21:48:27.604Z,82.25
2023-05-19T21:51:29.989Z,82.45
2023-05-19T21:54:32.956Z,82.77
2023-05-19T21:57:35.440Z,83.33
2023-05-19T22:00:38.923Z,83.08
2023-05-19T22:03:42.113Z,82.34
2023-05-19T22:06:44.983Z,82.59
2023-05-19T22:09:48.901Z,82.84
2023-05-19T22:12:51.977Z,80.51
2023-05-19T22:15:54.948Z,80.86
2023-05-19T22:18:57.742Z,81.77
2023-05-19T22:22:10.210Z,82.92
2023-05-19T22:25:16.577Z,82.78
2023-05-19T22:28:19.252Z,83.08
2023-05-19T22:31:21.933Z,82.93
2023-05-19T22:34:24.618Z,83.10
2023-05-19T22:37:28.933Z,83.04
2023-05-19T22:40:32.661Z,82.11
2023-05-19T22:43:35.500Z,82.21
2023-05-19T22:46:38.290Z,81.13
2023-05-19T22:49:41.639Z,81.04
2023-05-19T22:52:44.357Z,81.53
2023-05-19T22:55:47.044Z,81.79
2023-05-19T22:58:49.833Z,81.76
2023-05-19T23:01:52.646Z,81.97
2023-05-19T23:04:55.681Z,83.03
2023-05-19T23:07:58.361Z,83.01
2023-05-19T23:11:02.213Z,83.12
2023-05-19T23:14:04.927Z,83.57
2023-05-19T23:17:07.555Z,84.01
2023-05-19T23:20:10.644Z,83.76
2023-05-19T23:23:13.359Z,83.83
2023-05-19T23:26:16.208Z,83.97
2023-05-19T23:29:19.049Z,84.11
2023-05-19T23:32:21.764Z,84.01
2023-05-19T23:35:24.462Z,83.99
2023-05-19T23:38:27.748Z,84.19
2023-05-19T23:41:30.453Z,84.05
2023-05-19T23:44:33.070Z,84.18
2023-05-19T23:47:35.737Z,83.75
2023-05-19T23:50:39.018Z,83.85
2023-05-19T23:53:41.720Z,84.02
2023-05-19T23:56:44.337Z,83.92
2023-05-19T23:59:47.003Z,83.80
